Time;durP1;ratioP1;P1;durP2;ratioP2;P2;SDS_P1;SDS_P2;PMS_P1;PMS_P2;Temp;Humidity;BMP_temperature;BMP_pressure;BME280_temperature;BME280_humidity;BME280_pressure;Samples;Min_cycle;Max_cycle;Signal;HPM_P1;HPM_P2
2023/10/19 00:01:18;;;;;;;8.90;7.20;;;14.30;98.10;;;;;;6244418;23;20004;-77
2023/10/19 00:03:44;;;;;;;10.57;7.78;;;14.30;98.20;;;;;;6244339;23;20004;-77
2023/10/19 00:06:11;;;;;;;11.00;8.13;;;14.30;98.10;;;;;;6244610;23;20058;-77
2023/10/19 00:08:43;;;;;;;8.20;6.82;;;14.20;98.20;;;;;;6244813;23;20053;-77
2023/10/19 00:11:10;;;;;;;12.02;8.65;;;14.20;98.20;;;;;;6244769;23;20059;-78
2023/10/19 00:13:39;;;;;;;11.02;8.15;;;14.20;98.30;;;;;;6245675;23;20423;-80
2023/10/19 00:18:52;;;;;;;9.98;8.15;;;14.10;98.50;;;;;;6245196;23;20319;-79
2023/10/19 00:21:23;;;;;;;10.10;8.07;;;14.20;98.50;;;;;;6245474;23;20079;-79
2023/10/19 00:23:52;;;;;;;12.38;9.10;;;14.20;98.40;;;;;;6245111;23;20079;-79
2023/10/19 00:26:19;;;;;;;9.77;8.07;;;14.20;98.40;;;;;;6244641;23;20095;-79
2023/10/19 00:28:49;;;;;;;10.27;8.30;;;14.30;98.30;;;;;;6245146;23;20028;-79
2023/10/19 00:31:15;;;;;;;13.73;8.85;;;14.30;98.30;;;;;;6245494;23;20022;-79
2023/10/19 00:33:40;;;;;;;12.43;9.20;;;14.40;98.30;;;;;;6247138;23;20495;-79
2023/10/19 00:36:08;;;;;;;11.40;8.77;;;14.40;98.20;;;;;;6220589;23;20334;-78
2023/10/19 00:43:36;;;;;;;;;;;14.60;98.30;;;;;;6250034;23;20681;-80
2023/10/19 00:46:09;;;;;;;11.40;8.80;;;14.60;98.10;;;;;;6246776;23;19930;-79
2023/10/19 00:48:36;;;;;;;10.02;8.23;;;14.60;98.00;;;;;;6246350;23;20366;-79
2023/10/19 00:51:26;;;;;;;11.00;8.35;;;14.60;98.00;;;;;;6247165;23;20362;-77
2023/10/19 00:53:54;;;;;;;9.75;8.48;;;14.60;98.00;;;;;;6246329;23;20007;-77
2023/10/19 00:56:23;;;;;;;9.68;8.00;;;14.70;98.00;;;;;;6246579;23;20000;-78
2023/10/19 00:58:55;;;;;;;8.18;6.82;;;14.70;97.90;;;;;;6245923;23;20004;-78
2023/10/19 01:01:25;;;;;;;10.15;8.50;;;14.60;97.80;;;;;;6245399;23;20043;-80
2023/10/19 01:03:52;;;;;;;12.35;8.15;;;14.60;97.80;;;;;;6246498;23;20014;-80
2023/10/19 01:06:20;;;;;;;13.98;10.18;;;14.50;97.90;;;;;;6247445;23;20034;-82
2023/10/19 01:08:46;;;;;;;9.50;7.38;;;14.50;98.00;;;;;;6245197;23;20000;-82
2023/10/19 01:11:15;;;;;;;9.60;8.05;;;14.40;98.10;;;;;;6214774;23;20000;-84
2023/10/19 01:13:44;;;;;;;9.93;8.03;;;14.40;98.10;;;;;;6245740;23;20407;-83
2023/10/19 01:16:20;;;;;;;11.05;8.20;;;14.40;98.10;;;;;;6247091;23;20223;-83
2023/10/19 01:18:53;;;;;;;9.18;6.97;;;14.40;98.20;;;;;;6245536;23;20007;-83
2023/10/19 01:21:27;;;;;;;12.05;9.68;;;14.40;98.30;;;;;;6246185;23;20427;-83
2023/10/19 01:23:53;;;;;;;8.70;7.28;;;14.40;98.20;;;;;;6247024;23;20430;-83
2023/10/19 01:26:25;;;;;;;8.90;7.50;;;14.40;98.40;;;;;;6246382;23;20023;-83
2023/10/19 01:28:53;;;;;;;9.63;7.97;;;14.30;98.50;;;;;;6245684;23;20310;-84
2023/10/19 01:33:58;;;;;;;10.85;8.00;;;14.20;98.60;;;;;;6247680;23;20015;-84
2023/10/19 01:36:25;;;;;;;8.88;7.43;;;14.30;98.60;;;;;;6246408;23;20001;-84
2023/10/19 01:38:55;;;;;;;9.48;8.05;;;14.30;98.60;;;;;;6217725;23;20011;-84
2023/10/19 01:41:24;;;;;;;11.95;9.75;;;14.40;98.50;;;;;;6246353;23;20478;-84
2023/10/19 01:43:53;;;;;;;8.30;6.95;;;14.30;98.60;;;;;;6245875;23;20011;-84
2023/10/19 01:46:24;;;;;;;8.32;6.55;;;14.30;98.60;;;;;;6246692;23;20001;-84
2023/10/19 01:48:55;;;;;;;8.52;6.82;;;14.30;98.60;;;;;;6246003;23;20004;-82
2023/10/19 01:51:23;;;;;;;8.48;6.93;;;14.30;98.60;;;;;;6246499;23;20366;-82
2023/10/19 01:53:49;;;;;;;8.85;7.35;;;14.30;98.60;;;;;;6246489;23;20330;-81
2023/10/19 01:56:16;;;;;;;9.80;8.20;;;14.40;98.70;;;;;;6246351;23;20079;-81
2023/10/19 01:58:46;;;;;;;8.38;6.88;;;14.40;98.60;;;;;;6245808;23;20011;-81
2023/10/19 02:03:43;;;;;;;11.38;8.48;;;14.40;98.80;;;;;;6245325;23;20004;-82
2023/10/19 02:06:20;;;;;;;10.80;8.52;;;14.30;98.70;;;;;;6245411;23;20050;-81
2023/10/19 02:08:50;;;;;;;9.45;7.50;;;14.30;98.80;;;;;;6245073;23;20079;-82
2023/10/19 02:11:18;;;;;;;;;;;14.30;98.90;;;;;;6245810;23;19996;-82
2023/10/19 02:13:48;;;;;;;10.07;6.38;;;14.30;99.00;;;;;;6245948;23;19910;-81
2023/10/19 02:16:22;;;;;;;9.32;6.95;;;14.20;98.90;;;;;;6245825;23;20011;-82
2023/10/19 02:18:49;;;;;;;9.65;7.00;;;14.30;99.00;;;;;;6218234;23;20433;-82
2023/10/19 02:21:15;;;;;;;11.10;8.85;;;14.20;99.20;;;;;;6246307;23;20004;-83
2023/10/19 02:23:44;;;;;;;9.45;7.07;;;14.20;99.20;;;;;;6246197;23;20023;-83
2023/10/19 02:26:13;;;;;;;11.10;7.57;;;14.20;99.10;;;;;;6219213;23;20370;-82
2023/10/19 02:28:39;;;;;;;8.63;7.15;;;14.20;98.90;;;;;;6245953;23;20004;-82
2023/10/19 02:31:16;;;;;;;8.77;7.57;;;14.30;98.90;;;;;;6245911;23;20031;-82
2023/10/19 02:33:45;;;;;;;11.65;8.35;;;14.30;98.90;;;;;;6246296;23;20339;-81
2023/10/19 02:36:13;;;;;;;8.75;7.82;;;14.40;98.90;;;;;;6246473;23;20000;-81
2023/10/19 02:38:41;;;;;;;9.73;7.80;;;14.40;98.80;;;;;;6245614;23;20346;-84
2023/10/19 02:41:06;;;;;;;10.85;7.82;;;14.40;98.80;;;;;;6246508;23;20023;-84
2023/10/19 02:43:32;;;;;;;9.02;7.78;;;14.40;98.80;;;;;;6244920;23;20442;-84
2023/10/19 02:46:02;;;;;;;14.00;9.52;;;14.40;98.80;;;;;;6219143;23;20050;-85
2023/10/19 02:48:28;;;;;;;11.93;9.30;;;14.40;98.70;;;;;;6245154;23;20003;-84
2023/10/19 02:50:53;;;;;;;12.05;8.32;;;14.50;98.80;;;;;;6218640;23;20008;-85
2023/10/19 02:53:19;;;;;;;8.27;6.50;;;14.40;98.80;;;;;;6245400;23;20026;-85
2023/10/19 02:55:45;;;;;;;9.85;7.15;;;14.50;98.80;;;;;;6245185;23;19992;-86
2023/10/19 02:58:13;;;;;;;12.30;9.75;;;14.40;98.90;;;;;;6245658;23;20035;-84
2023/10/19 03:00:39;;;;;;;8.27;6.85;;;14.40;98.90;;;;;;6244912;23;20354;-85
2023/10/19 03:03:06;;;;;;;10.18;7.80;;;14.40;99.00;;;;;;6244939;23;20430;-85
2023/10/19 03:05:34;;;;;;;9.50;7.93;;;14.40;99.00;;;;;;6245729;23;20000;-85
2023/10/19 03:08:05;;;;;;;9.82;7.82;;;14.50;99.00;;;;;;6245293;23;20004;-85
2023/10/19 03:10:41;;;;;;;8.20;6.35;;;14.40;99.00;;;;;;6245842;23;20027;-87
2023/10/19 03:13:09;;;;;;;9.32;7.97;;;14.50;99.00;;;;;;6245669;23;20427;-86
2023/10/19 03:15:35;;;;;;;10.55;8.05;;;14.40;99.00;;;;;;6245823;23;20011;-84
2023/10/19 03:18:03;;;;;;;11.25;8.85;;;14.50;99.10;;;;;;6245274;23;20426;-85
2023/10/19 03:20:33;;;;;;;9.95;7.32;;;14.40;99.00;;;;;;6245445;23;20441;-85
2023/10/19 03:23:01;;;;;;;10.52;8.25;;;14.50;99.00;;;;;;6245409;23;20434;-87
2023/10/19 03:28:11;;;;;;;10.82;7.53;;;14.50;99.00;;;;;;6244884;23;20105;-85
2023/10/19 03:30:40;;;;;;;8.70;6.50;;;14.50;99.10;;;;;;6245524;23;20000;-85
2023/10/19 03:33:11;;;;;;;8.38;5.90;;;14.50;99.10;;;;;;6244864;23;20000;-86
2023/10/19 03:35:41;;;;;;;10.43;8.05;;;14.50;99.10;;;;;;6245496;23;20071;-83
2023/10/19 03:38:18;;;;;;;8.20;6.87;;;14.50;99.10;;;;;;6244582;23;20000;-83
2023/10/19 03:40:51;;;;;;;8.32;6.75;;;14.50;99.10;;;;;;6244841;23;20008;-80
2023/10/19 03:43:21;;;;;;;10.25;7.32;;;14.50;99.10;;;;;;6243952;23;20058;-79
2023/10/19 03:45:52;;;;;;;8.75;6.88;;;14.60;99.10;;;;;;6244927;23;20027;-79
2023/10/19 03:48:34;;;;;;;8.15;6.57;;;14.60;99.10;;;;;;6217419;23;20008;-79
2023/10/19 03:51:02;;;;;;;8.48;5.80;;;14.60;99.10;;;;;;6244758;23;20071;-79
2023/10/19 03:53:27;;;;;;;9.38;6.25;;;14.60;99.10;;;;;;6244874;23;19997;-79
2023/10/19 03:55:54;;;;;;;5.82;4.97;;;14.60;99.20;;;;;;6245008;23;20004;-79
2023/10/19 03:58:20;;;;;;;7.55;6.07;;;14.60;99.30;;;;;;6244412;23;19997;-79
2023/10/19 04:00:49;;;;;;;7.57;6.40;;;14.60;99.70;;;;;;6245208;23;20058;-80
2023/10/19 04:03:17;;;;;;;5.75;5.13;;;14.60;99.40;;;;;;6217351;23;20015;-80
2023/10/19 04:05:46;;;;;;;6.90;6.05;;;14.60;99.40;;;;;;6244945;23;20001;-79
2023/10/19 04:08:15;;;;;;;11.18;8.10;;;14.60;99.50;;;;;;6218066;23;20004;-79
2023/10/19 04:11:32;;;;;;;9.30;7.63;;;14.60;99.50;;;;;;6244487;23;20011;-79
2023/10/19 04:13:27;;;;;;;7.57;6.78;;;14.60;99.60;;;;;;6222079;23;20004;-80
2023/10/19 04:15:53;;;;;;;7.28;5.55;;;14.60;99.70;;;;;;6244493;23;20000;-79
2023/10/19 04:18:19;;;;;;;6.88;6.10;;;14.60;99.70;;;;;;6245232;23;20007;-80
2023/10/19 04:23:16;;;;;;;9.60;6.38;;;14.60;99.80;;;;;;6246495;23;20015;-80
2023/10/19 04:25:42;;;;;;;7.35;5.70;;;14.60;99.80;;;;;;6244625;23;20000;-80
2023/10/19 04:28:09;;;;;;;5.97;4.60;;;14.60;99.70;;;;;;6245005;23;20015;-88
2023/10/19 04:30:36;;;;;;;6.88;5.13;;;14.60;99.70;;;;;;6245564;23;20000;-87
2023/10/19 04:33:02;;;;;;;6.32;5.03;;;14.70;99.80;;;;;;6245670;23;19996;-87
2023/10/19 04:35:34;;;;;;;8.48;6.30;;;14.60;99.70;;;;;;6245486;23;20027;-87
2023/10/19 04:38:00;;;;;;;5.70;4.95;;;14.70;99.70;;;;;;6245627;23;20000;-86
2023/10/19 04:40:27;;;;;;;8.23;5.13;;;14.70;99.70;;;;;;6245283;23;20034;-85
2023/10/19 04:42:54;;;;;;;7.53;5.50;;;14.80;99.70;;;;;;6217106;23;20446;-85
2023/10/19 04:45:20;;;;;;;6.75;5.25;;;14.80;99.60;;;;;;6244069;23;20007;-86
2023/10/19 04:47:49;;;;;;;5.63;5.03;;;14.90;99.70;;;;;;6242856;23;20008;-87
2023/10/19 04:50:16;;;;;;;10.48;5.60;;;14.90;99.60;;;;;;6244349;23;20028;-88
2023/10/19 04:52:41;;;;;;;6.60;5.47;;;14.90;99.70;;;;;;6217532;23;20000;-88
2023/10/19 04:55:07;;;;;;;7.10;4.90;;;14.90;99.60;;;;;;6244416;23;20008;-88
2023/10/19 04:57:33;;;;;;;5.95;5.07;;;14.90;99.60;;;;;;6243906;23;20000;-88
2023/10/19 04:59:59;;;;;;;4.63;4.10;;;14.90;99.60;;;;;;6244925;23;20480;-84
2023/10/19 05:02:24;;;;;;;6.00;4.95;;;14.90;99.60;;;;;;6243201;23;20011;-79
2023/10/19 05:04:50;;;;;;;6.53;5.30;;;14.90;99.60;;;;;;6242511;23;21124;-79
2023/10/19 05:07:18;;;;;;;8.30;4.82;;;14.90;99.70;;;;;;6210765;23;20039;-85
2023/10/19 05:09:45;;;;;;;6.95;5.30;;;14.90;99.70;;;;;;6242117;23;20008;-79
2023/10/19 05:12:14;;;;;;;7.07;5.60;;;14.90;99.70;;;;;;6244380;23;20004;-88
2023/10/19 05:14:41;;;;;;;9.73;4.10;;;15.00;99.80;;;;;;6243997;23;19997;-89
2023/10/19 05:17:09;;;;;;;7.38;4.57;;;15.00;99.80;;;;;;6218757;23;20000;-90
2023/10/19 05:19:36;;;;;;;3.95;3.55;;;15.10;99.70;;;;;;6246048;23;20075;-89
2023/10/19 05:22:08;;;;;;;4.82;4.05;;;15.10;99.70;;;;;;6246120;23;20007;-89
2023/10/19 05:24:35;;;;;;;7.72;3.83;;;15.10;99.60;;;;;;6245200;23;20004;-89
2023/10/19 05:27:01;;;;;;;5.35;4.35;;;15.20;99.60;;;;;;6219726;23;20020;-91
2023/10/19 05:29:26;;;;;;;6.38;4.50;;;15.10;99.50;;;;;;6246613;23;20087;-90
2023/10/19 05:31:53;;;;;;;5.82;4.55;;;15.20;99.40;;;;;;6220656;23;20050;-89
2023/10/19 05:34:23;;;;;;;5.75;4.30;;;15.20;99.40;;;;;;6247660;23;20003;-90
2023/10/19 05:36:49;;;;;;;5.55;4.53;;;15.20;99.30;;;;;;6247431;23;20004;-90
2023/10/19 05:39:16;;;;;;;6.78;4.50;;;15.20;99.30;;;;;;6247459;23;20004;-90
2023/10/19 05:41:41;;;;;;;6.25;4.43;;;15.20;99.40;;;;;;6247259;23;20026;-88
2023/10/19 05:44:08;;;;;;;5.68;3.97;;;15.20;99.40;;;;;;6220506;23;20497;-88
2023/10/19 05:46:33;;;;;;;4.78;3.60;;;15.20;99.50;;;;;;6247131;23;20004;-91
2023/10/19 05:49:01;;;;;;;5.05;4.20;;;15.20;99.50;;;;;;6246565;23;20007;-84
2023/10/19 05:51:27;;;;;;;8.85;4.03;;;15.30;99.50;;;;;;6246459;23;20028;-90
2023/10/19 05:53:54;;;;;;;5.03;4.30;;;15.30;99.50;;;;;;6220275;23;20007;-90
2023/10/19 05:56:21;;;;;;;5.05;4.28;;;15.30;99.40;;;;;;6247529;23;20007;-90
2023/10/19 05:58:50;;;;;;;4.25;3.58;;;15.30;99.30;;;;;;6220352;23;20080;-91
2023/10/19 06:01:17;;;;;;;5.93;4.38;;;15.30;99.30;;;;;;6249035;23;20001;-87
2023/10/19 06:03:44;;;;;;;4.78;4.28;;;15.30;99.30;;;;;;6248718;23;20062;-91
2023/10/19 06:06:10;;;;;;;4.88;3.85;;;15.40;99.40;;;;;;6222931;23;20308;-80
2023/10/19 06:08:36;;;;;;;8.40;4.22;;;15.40;99.60;;;;;;6245935;23;20011;-79
2023/10/19 06:11:02;;;;;;;5.75;4.30;;;15.40;99.30;;;;;;6245862;23;20362;-77
2023/10/19 06:13:29;;;;;;;5.38;4.13;;;15.50;99.30;;;;;;6245833;23;20046;-79
2023/10/19 06:15:55;;;;;;;6.28;5.53;;;15.40;99.30;;;;;;6245725;23;19996;-79
2023/10/19 06:18:20;;;;;;;9.13;4.57;;;15.40;99.20;;;;;;6245293;23;20053;-82
2023/10/19 06:20:47;;;;;;;9.07;4.25;;;15.40;99.40;;;;;;6246029;23;20079;-82
2023/10/19 06:23:13;;;;;;;4.65;4.00;;;15.30;99.40;;;;;;6219555;23;20623;-82
2023/10/19 06:25:39;;;;;;;4.68;4.10;;;15.30;99.50;;;;;;6246831;23;20000;-82
2023/10/19 06:28:05;;;;;;;5.68;4.20;;;15.30;99.50;;;;;;6247582;23;20000;-83
2023/10/19 06:30:31;;;;;;;5.63;4.32;;;15.30;99.60;;;;;;6246536;23;20419;-83
2023/10/19 06:33:00;;;;;;;6.15;5.10;;;15.40;99.90;;;;;;6246675;23;20000;-84
2023/10/19 06:35:27;;;;;;;3.95;3.55;;;15.40;99.70;;;;;;6246503;23;20035;-83
2023/10/19 06:37:56;;;;;;;8.18;4.80;;;15.30;99.70;;;;;;6246290;23;19999;-83
2023/10/19 06:40:22;;;;;;;6.82;5.60;;;15.30;99.90;;;;;;6219921;23;20008;-83
2023/10/19 06:42:51;;;;;;;6.05;4.35;;;15.20;99.90;;;;;;6246565;23;20058;-83
2023/10/19 06:45:18;;;;;;;6.32;4.45;;;15.30;99.90;;;;;;6246266;23;20027;-82
2023/10/19 06:47:47;;;;;;;4.78;3.97;;;15.30;99.90;;;;;;6246727;23;20030;-82
2023/10/19 06:50:17;;;;;;;7.07;5.32;;;15.30;99.90;;;;;;6246553;23;20004;-83
2023/10/19 06:52:44;;;;;;;5.22;4.20;;;15.30;99.90;;;;;;6246624;23;20010;-82
2023/10/19 06:55:14;;;;;;;6.22;4.35;;;15.30;99.90;;;;;;6246579;23;20004;-82
2023/10/19 06:57:43;;;;;;;6.13;4.40;;;15.30;99.90;;;;;;6245693;23;20075;-83
2023/10/19 07:00:18;;;;;;;6.25;4.25;;;15.30;99.90;;;;;;6219888;23;20008;-83
2023/10/19 07:02:44;;;;;;;4.40;4.00;;;15.30;99.90;;;;;;6246813;23;20008;-83
2023/10/19 07:05:17;;;;;;;4.55;4.05;;;15.30;99.90;;;;;;6246175;23;20008;-83
2023/10/19 07:07:44;;;;;;;6.57;3.83;;;15.40;99.90;;;;;;6246347;23;20004;-86
2023/10/19 07:10:12;;;;;;;4.57;4.13;;;15.40;99.90;;;;;;6219261;23;20030;-87
2023/10/19 07:12:39;;;;;;;4.32;3.88;;;15.40;99.90;;;;;;6221515;23;20024;-88
2023/10/19 07:15:13;;;;;;;6.68;4.32;;;15.50;99.90;;;;;;6247890;23;20004;-86
2023/10/19 07:17:42;;;;;;;4.68;3.80;;;15.40;99.90;;;;;;6247205;23;20032;-86
2023/10/19 07:20:21;;;;;;;5.20;3.85;;;15.40;99.90;;;;;;6247800;23;20028;-86
2023/10/19 07:22:47;;;;;;;4.07;3.60;;;15.40;99.90;;;;;;6246312;23;20000;-85
2023/10/19 07:25:13;;;;;;;5.38;4.53;;;15.40;99.90;;;;;;6246144;23;20035;-85
2023/10/19 07:27:42;;;;;;;4.90;3.78;;;15.50;99.90;;;;;;6245877;23;20058;-85
2023/10/19 07:30:09;;;;;;;7.22;5.75;;;15.50;99.90;;;;;;6245917;23;20010;-85
2023/10/19 07:32:35;;;;;;;5.38;3.67;;;15.50;99.90;;;;;;6246312;23;20000;-86
2023/10/19 07:35:02;;;;;;;9.40;4.55;;;15.40;99.90;;;;;;6221657;23;20000;-86
2023/10/19 07:37:28;;;;;;;5.18;4.18;;;15.50;99.90;;;;;;6225477;23;20004;-86
2023/10/19 07:39:57;;;;;;;4.00;3.60;;;15.50;99.90;;;;;;6219370;23;20461;-87
2023/10/19 07:42:23;;;;;;;5.38;3.28;;;15.50;99.90;;;;;;6219642;23;20614;-85
2023/10/19 07:44:49;;;;;;;4.20;3.55;;;15.60;99.90;;;;;;6219036;23;20051;-84
2023/10/19 07:47:15;;;;;;;3.92;3.55;;;15.60;99.90;;;;;;6218709;23;20008;-84
2023/10/19 07:49:41;;;;;;;4.20;3.80;;;15.70;99.90;;;;;;6244207;23;20000;-83
2023/10/19 07:52:07;;;;;;;4.10;3.20;;;15.70;99.90;;;;;;6217625;23;20012;-83
2023/10/19 07:54:35;;;;;;;3.90;3.22;;;15.70;99.90;;;;;;6217232;23;20327;-82
2023/10/19 07:57:07;;;;;;;4.57;3.60;;;15.80;99.90;;;;;;6212079;23;20009;-82
2023/10/19 07:59:33;;;;;;;4.85;3.90;;;15.90;99.90;;;;;;6237532;23;20004;-82
2023/10/19 08:02:03;;;;;;;5.95;3.80;;;15.90;99.90;;;;;;6238638;23;20723;-82
2023/10/19 08:04:29;;;;;;;;;;;15.90;99.90;;;;;;6239564;23;20004;-81
2023/10/19 08:06:55;;;;;;;5.25;3.83;;;15.90;99.90;;;;;;6239417;23;19957;-82
2023/10/19 08:09:26;;;;;;;5.80;3.88;;;15.90;99.90;;;;;;6238945;23;20037;-81
2023/10/19 08:11:59;;;;;;;5.55;3.75;;;15.90;99.90;;;;;;6213020;23;20460;-81
2023/10/19 08:14:27;;;;;;;4.90;4.35;;;15.90;99.90;;;;;;6242088;23;20071;-81
2023/10/19 08:16:56;;;;;;;8.63;4.82;;;15.90;99.90;;;;;;6243678;23;20000;-82
2023/10/19 08:19:22;;;;;;;6.75;4.38;;;15.80;99.90;;;;;;6219418;23;20435;-86
2023/10/19 08:21:48;;;;;;;5.68;5.07;;;15.80;99.90;;;;;;6220294;23;20004;-85
2023/10/19 08:24:17;;;;;;;6.03;5.43;;;15.80;99.90;;;;;;6244301;23;20004;-85
2023/10/19 08:26:45;;;;;;;5.50;4.28;;;15.80;99.90;;;;;;6245641;23;20054;-86
2023/10/19 08:29:12;;;;;;;8.93;6.47;;;15.80;99.90;;;;;;6244937;23;20011;-88
2023/10/19 08:31:42;;;;;;;5.60;4.57;;;15.80;99.90;;;;;;6218516;23;20008;-85
2023/10/19 08:34:11;;;;;;;5.80;4.65;;;15.80;99.90;;;;;;6245160;23;20028;-86
2023/10/19 08:36:40;;;;;;;4.60;3.90;;;15.90;99.90;;;;;;6245588;23;20000;-87
2023/10/19 08:39:11;;;;;;;4.65;3.97;;;15.90;99.90;;;;;;6245576;23;20099;-86
2023/10/19 08:41:39;;;;;;;5.35;3.92;;;15.90;99.90;;;;;;6245554;23;20008;-86
2023/10/19 08:44:10;;;;;;;4.35;3.95;;;16.00;99.90;;;;;;6245904;23;20000;-86
2023/10/19 08:46:45;;;;;;;3.95;3.58;;;16.00;99.90;;;;;;6218958;23;20019;-86
2023/10/19 08:49:15;;;;;;;4.57;3.50;;;16.10;99.90;;;;;;6244785;23;20004;-85
2023/10/19 08:51:44;;;;;;;4.40;3.80;;;16.20;99.90;;;;;;6245083;23;20000;-85
2023/10/19 08:54:14;;;;;;;3.78;3.30;;;16.20;99.90;;;;;;6220964;23;20375;-85
2023/10/19 08:56:41;;;;;;;6.35;3.03;;;16.20;99.90;;;;;;6248736;23;20000;-86
2023/10/19 08:59:11;;;;;;;3.30;3.00;;;16.30;99.90;;;;;;6248591;23;20004;-86
2023/10/19 09:01:37;;;;;;;5.90;4.63;;;16.30;99.90;;;;;;6249064;23;20407;-86
2023/10/19 09:04:07;;;;;;;4.32;3.40;;;16.20;99.90;;;;;;6248440;23;20008;-87
2023/10/19 09:06:42;;;;;;;4.27;3.27;;;16.30;99.90;;;;;;6222191;23;20031;-86
2023/10/19 09:09:19;;;;;;;4.57;3.50;;;16.30;99.90;;;;;;6248571;23;20058;-86
2023/10/19 09:11:46;;;;;;;3.20;2.90;;;16.40;99.90;;;;;;6222020;23;20011;-86
2023/10/19 09:14:13;;;;;;;3.47;3.13;;;16.40;99.90;;;;;;6247519;23;20453;-84
2023/10/19 09:16:57;;;;;;;5.78;3.13;;;16.50;99.90;;;;;;6247270;23;20000;-85
2023/10/19 09:19:42;;;;;;;4.13;3.10;;;16.60;99.90;;;;;;6249006;23;20004;-88
2023/10/19 09:22:18;;;;;;;5.05;3.10;;;16.60;99.90;;;;;;6248602;23;20000;-88
2023/10/19 09:24:49;;;;;;;3.53;2.92;;;16.60;99.90;;;;;;6248904;23;20011;-87
2023/10/19 09:27:17;;;;;;;4.00;2.97;;;16.60;99.90;;;;;;6251732;23;20009;-87
2023/10/19 09:29:45;;;;;;;2.53;2.20;;;16.70;99.90;;;;;;6246831;23;20001;-87
2023/10/19 09:32:13;;;;;;;2.90;2.60;;;16.70;99.90;;;;;;6247040;23;20000;-88
2023/10/19 09:34:43;;;;;;;3.53;2.20;;;16.70;99.90;;;;;;6248292;23;20048;-84
2023/10/19 09:37:09;;;;;;;;;;;16.80;99.90;;;;;;6219560;23;20004;-84
2023/10/19 09:39:35;;;;;;;2.55;2.30;;;16.80;99.90;;;;;;6219695;23;19922;-85
2023/10/19 09:42:16;;;;;;;4.13;2.72;;;16.90;99.90;;;;;;6247582;23;20423;-84
2023/10/19 09:44:48;;;;;;;3.45;2.60;;;16.90;99.90;;;;;;6247809;23;20001;-84
2023/10/19 09:47:30;;;;;;;3.60;2.83;;;16.90;99.90;;;;;;6247755;23;20362;-85
2023/10/19 09:49:57;;;;;;;3.47;2.80;;;17.00;99.90;;;;;;6247253;23;20008;-83
2023/10/19 09:52:24;;;;;;;3.05;2.70;;;17.00;99.90;;;;;;6246581;23;20000;-86
2023/10/19 09:54:54;;;;;;;5.00;3.33;;;17.00;99.90;;;;;;6246441;23;19992;-84
2023/10/19 09:57:37;;;;;;;4.00;2.80;;;17.10;99.90;;;;;;6246740;23;20006;-83
2023/10/19 10:00:14;;;;;;;2.55;2.33;;;17.10;99.90;;;;;;6246421;23;20418;-83
2023/10/19 10:02:42;;;;;;;3.67;2.80;;;17.10;99.90;;;;;;6246697;23;20004;-84
2023/10/19 10:05:42;;;;;;;3.15;2.38;;;17.20;99.90;;;;;;6219006;23;20008;-84
2023/10/19 10:08:23;;;;;;;3.42;2.60;;;17.20;99.90;;;;;;6246524;23;20074;-85
2023/10/19 10:10:52;;;;;;;3.20;2.90;;;17.30;99.90;;;;;;6219888;23;20004;-83
2023/10/19 10:13:24;;;;;;;2.47;2.28;;;17.30;99.90;;;;;;6219910;23;20000;-84
2023/10/19 10:15:55;;;;;;;3.92;2.53;;;17.30;99.90;;;;;;6247156;23;20415;-85
2023/10/19 10:18:24;;;;;;;4.20;2.85;;;17.30;99.90;;;;;;6247482;23;20003;-85
2023/10/19 10:21:12;;;;;;;3.75;2.70;;;17.40;99.90;;;;;;6247081;23;20000;-85
2023/10/19 10:23:42;;;;;;;2.95;2.63;;;17.40;99.90;;;;;;6247083;23;20011;-83
2023/10/19 10:26:10;;;;;;;4.35;2.72;;;17.50;99.90;;;;;;6247456;23;20087;-84
2023/10/19 10:28:36;;;;;;;2.60;2.38;;;17.50;99.90;;;;;;6247336;23;20004;-84
2023/10/19 10:31:15;;;;;;;3.58;2.55;;;17.50;99.90;;;;;;6247770;23;20015;-84
2023/10/19 10:33:46;;;;;;;2.78;2.20;;;17.50;99.90;;;;;;6247193;23;20079;-84
2023/10/19 10:36:16;;;;;;;3.40;2.50;;;17.50;99.90;;;;;;6219671;23;20008;-84
2023/10/19 10:38:43;;;;;;;2.50;2.28;;;17.50;99.90;;;;;;6216828;23;20000;-83
2023/10/19 10:41:10;;;;;;;2.38;2.10;;;17.50;99.90;;;;;;6247365;23;20003;-86
2023/10/19 10:43:56;;;;;;;2.83;2.55;;;17.50;99.90;;;;;;6246777;23;20000;-86
2023/10/19 10:46:23;;;;;;;6.18;2.40;;;17.60;99.90;;;;;;6245352;23;20004;-83
2023/10/19 10:48:52;;;;;;;2.42;2.22;;;17.60;99.90;;;;;;6218678;23;20004;-84
2023/10/19 10:51:23;;;;;;;4.32;2.63;;;17.60;99.90;;;;;;6246497;23;19996;-84
2023/10/19 10:53:53;;;;;;;4.10;2.30;;;17.70;99.90;;;;;;6245800;23;20004;-83
2023/10/19 10:56:21;;;;;;;4.82;2.70;;;17.70;99.90;;;;;;6219209;23;20008;-85
2023/10/19 10:58:47;;;;;;;3.75;2.65;;;17.70;99.90;;;;;;6246188;23;20004;-85
2023/10/19 11:01:16;;;;;;;4.82;2.72;;;17.80;99.90;;;;;;6246280;23;20020;-84
2023/10/19 11:03:42;;;;;;;3.55;2.40;;;17.80;99.80;;;;;;6219228;23;20087;-83
2023/10/19 11:06:09;;;;;;;2.85;2.58;;;17.90;99.70;;;;;;6219049;23;20137;-83
2023/10/19 11:08:36;;;;;;;2.95;2.58;;;17.90;99.70;;;;;;6245694;23;20343;-83
2023/10/19 11:11:10;;;;;;;4.32;2.15;;;17.90;99.60;;;;;;6245092;23;20062;-83
2023/10/19 11:13:38;;;;;;;2.88;2.50;;;17.90;99.60;;;;;;6245853;23;20049;-82
2023/10/19 11:16:06;;;;;;;3.58;2.53;;;17.90;99.70;;;;;;6245103;23;20416;-82
2023/10/19 11:18:40;;;;;;;3.28;2.40;;;18.00;99.80;;;;;;6245684;23;19996;-83
2023/10/19 11:21:11;;;;;;;3.60;2.55;;;18.10;99.80;;;;;;6245904;23;20000;-86
2023/10/19 11:23:49;;;;;;;2.53;2.20;;;18.20;99.80;;;;;;6246203;23;20004;-85
2023/10/19 11:26:24;;;;;;;3.08;2.55;;;18.40;99.90;;;;;;6245886;23;20457;-83
2023/10/19 11:29:01;;;;;;;3.00;2.60;;;19.00;99.90;;;;;;6245940;23;20004;-84
2023/10/19 11:31:27;;;;;;;10.73;2.42;;;19.70;97.50;;;;;;6246200;23;20075;-85
2023/10/19 11:33:58;;;;;;;4.10;2.28;;;19.90;97.40;;;;;;6246979;23;20000;-87
2023/10/19 11:36:24;;;;;;;3.83;2.50;;;19.90;96.90;;;;;;6245245;23;19997;-85
2023/10/19 11:38:52;;;;;;;3.33;2.42;;;19.80;96.80;;;;;;6245521;23;20050;-86
2023/10/19 11:41:18;;;;;;;3.35;2.20;;;19.80;96.80;;;;;;6245560;23;20003;-86
2023/10/19 11:43:48;;;;;;;3.35;2.65;;;19.70;97.10;;;;;;6218312;23;20036;-85
2023/10/19 11:46:14;;;;;;;;;;;19.60;97.00;;;;;;6220298;23;20343;-85
2023/10/19 11:48:42;;;;;;;3.05;2.65;;;19.50;97.00;;;;;;6245396;23;19953;-85
2023/10/19 11:51:10;;;;;;;4.40;2.30;;;19.40;97.00;;;;;;6245389;23;20500;-86
2023/10/19 11:53:37;;;;;;;5.05;2.58;;;19.30;97.20;;;;;;6245460;23;20004;-87
2023/10/19 11:56:06;;;;;;;4.90;2.70;;;19.20;97.30;;;;;;6218431;23;20057;-83
2023/10/19 11:58:37;;;;;;;2.97;2.45;;;19.10;97.40;;;;;;6244872;23;20000;-83
2023/10/19 12:01:05;;;;;;;4.57;2.38;;;19.10;97.60;;;;;;6218287;23;20008;-84
2023/10/19 12:03:31;;;;;;;3.47;2.67;;;19.00;97.70;;;;;;6245332;23;20438;-83
2023/10/19 12:05:57;;;;;;;5.38;2.80;;;19.00;97.80;;;;;;6244773;23;20004;-82
2023/10/19 12:08:23;;;;;;;3.17;2.55;;;19.00;97.80;;;;;;6245244;23;20071;-81
2023/10/19 12:10:50;;;;;;;2.97;2.47;;;19.00;97.80;;;;;;6244737;23;20027;-83
2023/10/19 12:13:17;;;;;;;4.38;2.70;;;19.10;97.90;;;;;;6242011;23;20331;-85
2023/10/19 12:15:51;;;;;;;3.92;2.60;;;19.10;97.90;;;;;;6243174;23;20754;-82
2023/10/19 12:18:19;;;;;;;6.40;2.60;;;19.10;98.00;;;;;;6217806;23;20004;-82
2023/10/19 12:20:45;;;;;;;3.50;2.90;;;19.10;98.10;;;;;;6243433;23;20011;-82
2023/10/19 12:23:11;;;;;;;2.97;2.60;;;19.20;98.20;;;;;;6244270;23;20004;-82
2023/10/19 12:25:38;;;;;;;3.65;2.80;;;19.10;98.20;;;;;;6243910;23;20004;-83
2023/10/19 12:30:38;;;;;;;3.83;2.38;;;19.10;98.10;;;;;;6247287;23;20035;-83
2023/10/19 12:33:14;;;;;;;3.63;3.13;;;19.10;98.20;;;;;;6219966;23;20027;-84
2023/10/19 12:35:53;;;;;;;6.65;2.97;;;19.20;98.40;;;;;;6220681;23;20027;-76
2023/10/19 12:38:22;;;;;;;3.80;2.92;;;19.10;98.40;;;;;;6245817;23;19997;-75
2023/10/19 12:40:54;;;;;;;3.58;2.75;;;19.20;98.30;;;;;;6244964;23;20023;-76
2023/10/19 12:43:22;;;;;;;7.07;3.00;;;19.30;98.20;;;;;;6247793;23;20004;-76
2023/10/19 12:45:50;;;;;;;4.38;2.90;;;19.20;98.10;;;;;;6247673;23;20000;-81
2023/10/19 12:48:17;;;;;;;3.15;2.67;;;19.20;98.10;;;;;;6246118;23;20099;-79
2023/10/19 12:50:43;;;;;;;5.80;3.25;;;19.20;98.20;;;;;;6246291;23;20014;-81
2023/10/19 12:53:09;;;;;;;4.38;2.88;;;19.20;98.20;;;;;;6246010;23;20409;-81
2023/10/19 12:55:37;;;;;;;4.10;3.40;;;19.10;98.20;;;;;;6246579;23;20020;-81
2023/10/19 12:58:09;;;;;;;4.38;3.10;;;19.10;98.30;;;;;;6218356;23;20070;-81
2023/10/19 13:00:40;;;;;;;5.25;3.05;;;19.10;98.30;;;;;;6246276;23;20305;-81
2023/10/19 13:03:08;;;;;;;5.55;3.25;;;19.10;98.40;;;;;;6246592;23;20058;-81
2023/10/19 13:05:37;;;;;;;3.70;3.08;;;19.10;98.40;;;;;;6245670;23;20011;-80
2023/10/19 13:08:08;;;;;;;3.63;2.80;;;19.00;98.40;;;;;;6246246;23;20020;-81
2023/10/19 13:10:37;;;;;;;5.85;3.25;;;19.00;98.40;;;;;;6247520;23;20338;-81
2023/10/19 13:13:05;;;;;;;6.65;3.70;;;19.00;98.40;;;;;;6247357;23;20006;-81
2023/10/19 13:15:35;;;;;;;4.60;3.25;;;19.00;98.50;;;;;;6247587;23;20027;-82
2023/10/19 13:18:02;;;;;;;3.33;2.95;;;18.90;98.50;;;;;;6247276;23;20015;-81